Time;durP1;ratioP1;P1;durP2;ratioP2;P2;SDS_P1;SDS_P2;PMS_P1;PMS_P2;Temp;Humidity;BMP_temperature;BMP_pressure;BME280_temperature;BME280_humidity;BME280_pressure;Samples;Min_cycle;Max_cycle;Signal;HPM_P1;HPM_P2
2021/12/16 00:01:42;;;;;;;20.70;10.82;;;;;;;5.01;62.07;100581.72;3152070;28;20049;-69
2021/12/16 00:02:47;;;;;;;21.52;11.80;;;;;;;4.86;62.58;100589.59;3151360;28;20044;-70
2021/12/16 00:08:17;;;;;;;20.23;11.00;;;;;;;4.79;62.67;100593.94;3150157;28;20061;-68
2021/12/16 00:09:57;;;;;;;20.40;11.32;;;;;;;4.81;62.80;100593.94;3152653;28;20097;-70
2021/12/16 00:30:08;;;;;;;16.70;9.90;;;;;;;4.27;63.25;100556.53;3153382;28;20406;-70
2021/12/16 00:31:48;;;;;;;19.15;10.88;;;;;;;4.51;63.37;100599.34;3158156;28;20050;-71
2021/12/16 00:33:34;;;;;;;16.15;9.55;;;;;;;4.10;63.26;100536.03;3153578;28;20051;-70
2021/12/16 00:35:07;;;;;;;18.08;9.63;;;;;;;4.09;63.28;100529.19;3146802;28;20127;-71
2021/12/16 00:36:41;;;;;;;18.10;10.45;;;;;;;3.99;63.29;100513.78;3148423;28;20087;-70
2021/12/16 00:38:13;;;;;;;17.08;9.82;;;;;;;4.06;63.11;100525.78;3155785;28;20554;-70
2021/12/16 00:39:47;;;;;;;20.52;11.13;;;;;;;4.56;63.34;100600.16;3145796;28;20045;-70
2021/12/16 00:41:18;;;;;;;16.60;9.43;;;;;;;4.55;63.47;100613.06;3154820;28;20105;-70
2021/12/16 00:42:53;;;;;;;16.92;9.32;;;;;;;4.56;63.44;100604.47;3145776;28;20440;-70
2021/12/16 00:44:49;;;;;;;21.63;10.85;;;;;;;4.26;63.58;100566.84;3150619;28;20131;-70
2021/12/16 00:46:44;;;;;;;21.77;11.18;;;;;;;4.47;63.78;100618.31;3153403;28;20041;-72
2021/12/16 00:48:24;;;;;;;20.10;10.68;;;;;;;4.46;63.84;100618.28;3151062;28;20050;-71
2021/12/16 00:50:06;;;;;;;22.15;10.88;;;;;;;4.44;63.76;100612.31;3150255;28;20101;-70
2021/12/16 00:55:29;;;;;;;18.20;9.80;;;;;;;4.37;63.93;100608.03;3156458;28;20052;-71
2021/12/16 00:57:07;;;;;;;18.13;10.43;;;;;;;4.40;64.01;100608.03;3152638;28;20189;-73
2021/12/16 00:58:46;;;;;;;21.83;10.07;;;;;;;4.40;64.16;100608.03;3144414;28;20048;-72
2021/12/16 01:00:18;;;;;;;21.17;10.68;;;;;;;4.38;64.20;100602.91;3152560;28;20051;-72
2021/12/16 01:01:56;;;;;;;17.60;9.93;;;;;;;4.43;63.91;100605.41;3148473;28;20048;-72
2021/12/16 01:03:35;;;;;;;21.17;10.80;;;;;;;4.35;64.05;100597.75;3163312;28;20089;-70
2021/12/16 01:07:16;;;;;;;21.60;10.73;;;;;;;4.08;64.32;100563.56;3136977;28;20105;-71
2021/12/16 01:09:19;;;;;;;20.23;10.38;;;;;;;4.29;64.26;100602.97;3149151;28;20058;-71
2021/12/16 01:34:04;;;;;;;21.80;11.60;;;;;;;4.04;64.82;100576.47;3140125;28;20049;-71
2021/12/16 01:35:44;;;;;;;21.02;11.02;;;;;;;4.03;64.94;100582.50;3145768;28;20504;-71
2021/12/16 01:50:00;;;;;;;22.80;11.55;;;;;;;3.94;65.16;100572.25;3143935;28;20104;-72
2021/12/16 01:51:41;;;;;;;23.52;12.48;;;;;;;3.95;65.14;100571.38;3145957;28;20916;-71
2021/12/16 01:53:23;;;;;;;25.80;12.50;;;;;;;3.87;65.01;100556.81;3146723;28;20064;-71
2021/12/16 01:55:06;;;;;;;23.40;11.40;;;;;;;3.92;65.27;100571.38;3144140;28;20135;-71
2021/12/16 01:56:46;;;;;;;21.30;11.35;;;;;;;3.86;65.16;100567.97;3137389;28;20066;-71
2021/12/16 01:58:24;;;;;;;25.40;12.75;;;;;;;3.90;65.04;100567.94;3141913;28;20493;-71
2021/12/16 02:00:02;;;;;;;21.77;10.77;;;;;;;3.90;64.85;100578.25;3139300;28;20134;-70
2021/12/16 02:01:37;;;;;;;19.70;10.25;;;;;;;3.88;64.99;100571.41;3130674;28;20139;-70
2021/12/16 02:03:10;;;;;;;22.20;11.88;;;;;;;3.87;65.01;100566.25;3144725;28;20055;-70
2021/12/16 02:05:05;;;;;;;20.67;10.88;;;;;;;3.87;64.85;100561.97;3142188;28;20051;-70
2021/12/16 02:06:46;;;;;;;22.80;11.27;;;;;;;3.79;64.85;100548.25;3143577;28;20545;-71
2021/12/16 02:08:23;;;;;;;;;;;;;;;3.65;65.12;100566.34;3138377;28;20075;-70
2021/12/16 02:10:02;;;;;;;20.17;9.73;;;;;;;3.71;65.42;100562.91;3143403;28;20012;-71
2021/12/16 02:11:48;;;;;;;21.50;11.25;;;;;;;3.78;65.28;100567.16;3144818;28;20063;-71
2021/12/16 02:13:45;;;;;;;23.35;11.10;;;;;;;3.79;65.16;100556.00;3146049;28;20062;-71
2021/12/16 02:28:28;;;;;;;21.85;11.18;;;;;;;3.71;65.37;100559.47;3141048;28;20048;-70
2021/12/16 02:31:56;;;;;;;23.80;11.40;;;;;;;3.74;65.21;100568.03;3134976;28;20324;-70
2021/12/16 02:34:15;;;;;;;24.67;11.10;;;;;;;3.76;65.08;100566.31;3148988;28;20048;-70
2021/12/16 02:35:46;;;;;;;22.55;10.82;;;;;;;3.64;65.31;100562.09;3147468;28;20059;-69
2021/12/16 02:37:22;;;;;;;24.50;11.30;;;;;;;3.71;65.19;100557.75;3144911;28;20089;-66
2021/12/16 02:38:59;;;;;;;21.02;10.88;;;;;;;3.73;64.97;100560.34;3132573;28;20076;-69
2021/12/16 02:40:36;;;;;;;22.05;11.10;;;;;;;3.72;65.15;100561.19;3130482;28;20766;-69
2021/12/16 02:42:16;;;;;;;24.10;11.40;;;;;;;3.74;64.89;100562.88;3146686;28;20051;-69
2021/12/16 02:44:10;;;;;;;26.55;12.25;;;;;;;3.74;65.10;100560.31;3137238;28;20056;-70
2021/12/16 02:49:24;;;;;;;24.50;11.50;;;;;;;3.69;65.24;100568.91;3146549;28;20497;-70
2021/12/16 02:50:57;;;;;;;23.23;10.85;;;;;;;3.69;65.23;100569.78;3142678;28;20589;-69
2021/12/16 02:52:31;;;;;;;22.92;11.52;;;;;;;3.72;65.24;100571.47;3142543;28;20474;-70
2021/12/16 02:54:05;;;;;;;26.27;11.90;;;;;;;3.72;65.17;100569.75;3123598;28;20583;-69
2021/12/16 02:55:37;;;;;;;24.02;11.95;;;;;;;3.73;65.26;100573.22;3127333;28;20049;-70
2021/12/16 02:57:10;;;;;;;25.27;11.77;;;;;;;3.71;65.28;100570.63;3130951;28;20079;-69
2021/12/16 02:58:48;;;;;;;23.13;11.38;;;;;;;3.70;65.23;100565.47;3126196;28;20056;-69
2021/12/16 03:00:20;;;;;;;21.33;11.45;;;;;;;3.69;65.38;100568.91;3127196;28;20441;-70
2021/12/16 03:01:54;;;;;;;24.05;12.02;;;;;;;3.69;65.37;100569.78;3134663;28;20106;-70
2021/12/16 03:03:27;;;;;;;24.90;11.95;;;;;;;3.68;65.53;100578.38;3135194;28;20090;-69
2021/12/16 03:04:59;;;;;;;23.70;11.55;;;;;;;3.68;65.46;100578.38;3134360;28;20126;-69
2021/12/16 03:06:31;;;;;;;25.33;12.32;;;;;;;3.61;65.43;100561.25;3127569;28;20339;-68
2021/12/16 03:08:06;;;;;;;25.67;12.52;;;;;;;3.39;65.49;100530.41;3126790;28;20056;-68
2021/12/16 03:10:15;;;;;;;27.10;11.75;;;;;;;3.63;65.50;100574.94;3125586;28;20049;-68
2021/12/16 03:12:14;;;;;;;22.55;11.68;;;;;;;3.53;65.75;100575.88;3139795;28;20594;-68
2021/12/16 03:13:51;;;;;;;24.70;12.25;;;;;;;3.48;65.81;100560.41;3124561;28;20132;-68
2021/12/16 03:15:37;;;;;;;26.23;12.20;;;;;;;3.45;65.77;100567.31;3128879;28;20045;-68
2021/12/16 03:17:18;;;;;;;24.98;11.52;;;;;;;3.46;65.87;100577.63;3130640;28;20140;-69
2021/12/16 03:19:05;;;;;;;22.67;11.55;;;;;;;3.36;65.83;100560.47;3123327;28;20451;-69
2021/12/16 03:20:43;;;;;;;23.38;10.75;;;;;;;3.00;65.90;100503.09;3132151;28;20130;-70
2021/12/16 03:22:28;;;;;;;24.05;11.68;;;;;;;3.47;65.83;100578.47;3127398;28;20056;-68
2021/12/16 03:24:23;;;;;;;23.77;11.27;;;;;;;3.46;65.82;100576.72;3128643;28;20049;-68
2021/12/16 03:26:21;;;;;;;25.00;11.57;;;;;;;3.11;66.15;100532.25;3120777;28;20156;-69
2021/12/16 03:35:29;;;;;;;24.17;11.18;;;;;;;3.45;66.06;100577.59;3121042;28;20048;-69
2021/12/16 03:37:18;;;;;;;22.80;11.27;;;;;;;3.36;65.88;100565.63;3119454;28;20368;-69
2021/12/16 03:38:51;;;;;;;26.75;11.63;;;;;;;3.36;65.98;100568.19;3123069;28;20049;-69
2021/12/16 03:40:25;;;;;;;28.13;12.85;;;;;;;3.40;65.89;100585.34;3119356;28;20053;-69
2021/12/16 03:41:59;;;;;;;23.58;11.63;;;;;;;3.22;65.89;100555.34;3122499;28;20514;-70
2021/12/16 03:43:32;;;;;;;25.25;11.75;;;;;;;3.35;65.90;100580.22;3118867;28;20310;-70
2021/12/16 03:45:08;;;;;;;24.67;11.57;;;;;;;3.39;65.71;100583.63;3120328;28;20151;-69
2021/12/16 03:46:45;;;;;;;23.58;11.32;;;;;;;3.12;65.79;100545.97;3120613;28;20080;-68
2021/12/16 03:48:20;;;;;;;26.92;11.93;;;;;;;3.32;65.83;100581.94;3118536;28;20057;-69
2021/12/16 03:49:54;;;;;;;23.58;11.27;;;;;;;3.31;65.97;100582.78;3120279;28;20141;-69
2021/12/16 03:51:31;;;;;;;26.80;12.27;;;;;;;3.30;65.93;100578.50;3117218;28;20791;-68
2021/12/16 03:53:06;;;;;;;22.98;11.02;;;;;;;3.24;65.85;100579.38;3122636;28;20380;-69
2021/12/16 03:54:41;;;;;;;25.40;11.57;;;;;;;3.27;65.97;100581.94;3113444;28;20860;-69
2021/12/16 03:56:14;;;;;;;27.08;12.38;;;;;;;3.26;65.99;100590.53;3121143;28;20052;-69
2021/12/16 03:57:47;;;;;;;26.17;12.23;;;;;;;3.24;65.98;100579.38;3129559;28;20049;-70
2021/12/16 03:59:22;;;;;;;24.65;11.45;;;;;;;3.24;65.96;100588.84;3126859;28;20049;-69
2021/12/16 04:00:57;;;;;;;22.25;11.15;;;;;;;3.00;66.09;100554.56;3130065;28;20061;-69
2021/12/16 04:02:35;;;;;;;23.17;11.68;;;;;;;3.19;66.16;100583.69;3128879;28;20107;-70
2021/12/16 04:04:07;;;;;;;24.55;11.07;;;;;;;3.09;66.11;100577.72;3129307;28;20052;-70
2021/12/16 04:05:40;;;;;;;25.20;11.73;;;;;;;3.13;66.15;100584.53;3129462;28;20057;-69
2021/12/16 04:07:13;;;;;;;25.98;11.27;;;;;;;2.88;66.14;100541.72;3128814;28;20124;-70
2021/12/16 04:08:45;;;;;;;30.08;11.45;;;;;;;3.15;66.06;100584.56;3128756;28;20103;-70
2021/12/16 04:10:21;;;;;;;24.60;11.88;;;;;;;3.14;66.09;100588.84;3128868;28;20052;-68
2021/12/16 04:12:03;;;;;;;23.02;10.73;;;;;;;3.12;66.28;100590.56;3128762;28;20084;-68
2021/12/16 04:13:53;;;;;;;25.02;11.45;;;;;;;3.08;66.26;100590.59;3129398;28;20037;-68
2021/12/16 04:15:24;;;;;;;27.27;12.50;;;;;;;3.02;66.38;100586.31;3127389;28;20095;-69
2021/12/16 04:16:59;;;;;;;24.08;11.98;;;;;;;3.00;66.44;100582.88;3129913;28;20045;-68
2021/12/16 04:18:31;;;;;;;25.05;11.50;;;;;;;2.97;66.43;100588.88;3127157;28;20084;-69
2021/12/16 04:20:09;;;;;;;23.08;11.45;;;;;;;3.01;66.51;100579.44;3129469;28;20049;-69
2021/12/16 04:21:48;;;;;;;23.05;11.15;;;;;;;2.94;66.41;100573.44;3128097;28;20056;-69
2021/12/16 04:23:20;;;;;;;26.40;11.73;;;;;;;2.97;66.57;100586.31;3128491;28;20041;-69
2021/12/16 04:24:52;;;;;;;27.27;11.93;;;;;;;2.87;66.51;100556.31;3129575;28;20053;-68
2021/12/16 04:26:25;;;;;;;24.42;12.13;;;;;;;2.95;66.58;100572.56;3128142;28;20057;-71
2021/12/16 04:28:02;;;;;;;23.40;10.93;;;;;;;2.83;66.69;100557.16;3129206;28;20060;-71
2021/12/16 04:29:33;;;;;;;23.45;10.80;;;;;;;2.92;66.65;100577.72;3128978;28;20056;-70
2021/12/16 04:31:05;;;;;;;25.73;11.55;;;;;;;2.95;66.69;100562.28;3128679;28;20049;-71
2021/12/16 04:32:37;;;;;;;26.75;12.05;;;;;;;2.89;66.41;100567.44;3128918;28;20114;-70
2021/12/16 04:34:09;;;;;;;26.73;11.65;;;;;;;2.94;66.77;100573.44;3129490;28;20049;-70
2021/12/16 04:35:42;;;;;;;23.65;11.00;;;;;;;2.93;66.69;100563.19;3129324;28;20147;-71
2021/12/16 04:37:16;;;;;;;24.35;11.30;;;;;;;2.96;66.72;100571.75;3128917;28;20041;-71
2021/12/16 04:38:48;;;;;;;25.20;11.52;;;;;;;2.95;66.69;100574.28;3127491;28;20052;-70
2021/12/16 04:40:21;;;;;;;26.77;11.38;;;;;;;2.90;66.66;100566.59;3129911;28;20059;-71
2021/12/16 04:41:55;;;;;;;25.17;11.65;;;;;;;2.90;66.68;100569.19;3130649;28;20449;-70
2021/12/16 04:43:39;;;;;;;24.48;11.05;;;;;;;2.77;66.85;100546.88;3128027;28;20044;-70
2021/12/16 04:45:13;;;;;;;27.08;12.05;;;;;;;2.88;66.84;100581.19;3120271;28;20050;-70
2021/12/16 04:46:47;;;;;;;23.48;11.10;;;;;;;2.89;66.93;100582.03;3119310;28;20183;-70
2021/12/16 04:48:19;;;;;;;25.55;11.85;;;;;;;2.58;66.88;100538.34;3117320;28;20057;-72
2021/12/16 04:49:51;;;;;;;22.08;10.93;;;;;;;2.84;67.01;100581.16;3119851;28;20041;-69
2021/12/16 04:51:25;;;;;;;23.70;11.68;;;;;;;2.78;67.04;100561.47;3120236;28;20060;-70
2021/12/16 04:52:58;;;;;;;25.13;10.90;;;;;;;2.86;67.03;100569.16;3114694;28;20056;-70
2021/12/16 04:54:30;;;;;;;27.40;10.98;;;;;;;2.83;67.13;100579.47;3119634;28;20056;-70
2021/12/16 04:56:03;;;;;;;23.00;11.52;;;;;;;2.79;67.13;100568.31;3120960;28;20051;-69
2021/12/16 04:57:35;;;;;;;22.98;10.63;;;;;;;2.79;67.17;100576.03;3119776;28;20053;-69
2021/12/16 04:59:11;;;;;;;24.92;10.73;;;;;;;2.85;67.19;100575.19;3120902;28;20061;-69
2021/12/16 05:00:42;;;;;;;27.65;10.85;;;;;;;2.82;66.97;100577.75;3120796;28;20060;-69
2021/12/16 05:02:17;;;;;;;23.50;11.05;;;;;;;2.85;67.20;100586.31;3119415;28;20053;-69
2021/12/16 05:03:51;;;;;;;22.48;10.85;;;;;;;2.84;67.11;100584.63;3125547;28;20070;-69
2021/12/16 05:05:24;;;;;;;24.08;10.00;;;;;;;2.84;67.17;100581.16;3119882;28;20049;-69
2021/12/16 05:06:56;;;;;;;22.45;10.60;;;;;;;2.26;67.45;100502.38;3120260;28;20503;-69
2021/12/16 05:08:30;;;;;;;22.88;10.15;;;;;;;2.82;67.22;100588.91;3120300;28;20095;-70
2021/12/16 05:10:03;;;;;;;23.85;10.93;;;;;;;2.82;67.36;100595.78;3119316;28;20056;-70
2021/12/16 05:11:36;;;;;;;26.10;11.27;;;;;;;2.79;67.33;100595.78;3120950;28;20470;-70
2021/12/16 05:13:08;;;;;;;25.70;11.02;;;;;;;2.80;67.28;100610.34;3119834;28;20046;-70
2021/12/16 05:14:40;;;;;;;22.63;10.93;;;;;;;2.80;67.17;100600.91;3120293;28;20053;-70
2021/12/16 05:16:13;;;;;;;22.40;10.52;;;;;;;2.25;67.24;100513.50;3120586;28;20045;-70
2021/12/16 05:17:47;;;;;;;21.23;10.35;;;;;;;2.80;67.32;100602.63;3119421;28;20045;-70
2021/12/16 05:19:21;;;;;;;25.73;10.25;;;;;;;2.77;67.48;100600.91;3120731;28;20136;-70
2021/12/16 05:20:55;;;;;;;;;;;;;;;2.59;67.65;100606.91;3117842;28;20084;-69
2021/12/16 05:24:25;;;;;;;23.27;10.75;;;;;;;2.67;67.80;100606.91;3114481;28;20097;-70
2021/12/16 05:26:15;;;;;;;19.80;10.25;;;;;;;2.69;67.76;100597.47;3119453;28;20079;-70
2021/12/16 05:27:47;;;;;;;24.40;11.27;;;;;;;2.65;67.72;100594.03;3116720;28;20111;-70
2021/12/16 05:29:19;;;;;;;23.15;10.35;;;;;;;2.72;67.63;100612.91;3118416;28;20113;-69
2021/12/16 05:30:52;;;;;;;23.13;10.60;;;;;;;2.75;67.49;100607.75;3125208;28;20141;-70
2021/12/16 05:32:24;;;;;;;32.83;11.50;;;;;;;2.75;67.51;100605.19;3118843;28;20538;-71
2021/12/16 05:33:58;;;;;;;24.35;11.95;;;;;;;2.43;67.42;100559.78;3119951;28;20128;-69
2021/12/16 05:35:29;;;;;;;23.55;10.88;;;;;;;2.69;67.52;100602.59;3120228;28;20048;-68
2021/12/16 05:37:04;;;;;;;25.15;11.95;;;;;;;2.73;67.46;100612.06;3119538;28;20057;-70
2021/12/16 05:38:37;;;;;;;25.63;11.95;;;;;;;2.74;67.54;100617.19;3118392;28;20084;-71
2021/12/16 05:40:12;;;;;;;24.48;11.77;;;;;;;2.76;67.46;100614.63;3118242;28;20053;-71
2021/12/16 05:41:44;;;;;;;25.25;12.70;;;;;;;2.73;67.38;100612.91;3119853;28;20055;-70
2021/12/16 05:43:21;;;;;;;29.40;13.30;;;;;;;2.77;67.37;100623.19;3119842;28;20412;-71
2021/12/16 05:44:53;;;;;;;24.23;11.65;;;;;;;2.71;67.35;100614.63;3118955;28;20050;-70
2021/12/16 05:46:26;;;;;;;26.13;11.07;;;;;;;2.77;67.50;100621.47;3120041;28;20045;-71
2021/12/16 05:48:00;;;;;;;25.77;11.02;;;;;;;2.77;67.40;100618.06;3115222;28;20041;-71
2021/12/16 05:49:32;;;;;;;23.20;10.25;;;;;;;2.73;67.61;100623.19;3119951;28;20119;-70
2021/12/16 05:51:08;;;;;;;25.75;11.10;;;;;;;2.74;67.44;100616.34;3120208;28;20111;-71
2021/12/16 05:52:40;;;;;;;21.48;10.75;;;;;;;2.71;67.58;100603.47;3119437;28;20503;-71
2021/12/16 05:54:14;;;;;;;24.38;11.15;;;;;;;2.64;67.37;100594.91;3119986;28;20049;-70
2021/12/16 05:55:47;;;;;;;23.40;10.43;;;;;;;2.77;67.50;100618.91;3118712;28;20094;-69
2021/12/16 05:57:19;;;;;;;;;;;;;;;2.56;67.69;100617.19;3119575;28;20060;-69
2021/12/16 05:58:51;;;;;;;23.35;10.25;;;;;;;2.60;67.98;100618.03;3118797;28;19925;-68
2021/12/16 06:00:26;;;;;;;22.02;10.23;;;;;;;2.64;67.74;100612.06;3117973;28;20129;-68
2021/12/16 06:01:58;;;;;;;27.25;9.82;;;;;;;2.70;67.64;100617.19;3117639;28;20438;-68
2021/12/16 06:03:31;;;;;;;21.52;10.60;;;;;;;2.73;67.60;100625.78;3118864;28;20132;-68
2021/12/16 06:05:04;;;;;;;25.35;10.23;;;;;;;2.64;67.51;100615.50;3119018;28;20103;-68
2021/12/16 06:06:36;;;;;;;25.58;10.48;;;;;;;2.74;67.43;100632.63;3119240;28;20049;-68
2021/12/16 06:08:08;;;;;;;23.25;9.82;;;;;;;2.80;67.44;100629.19;3119053;28;20112;-68
2021/12/16 06:09:40;;;;;;;21.33;10.77;;;;;;;2.80;67.25;100629.19;3119501;28;20053;-68
2021/12/16 06:11:18;;;;;;;22.05;11.13;;;;;;;2.30;67.16;100542.63;3119601;28;20057;-69
2021/12/16 06:12:50;;;;;;;23.67;10.48;;;;;;;2.81;67.31;100624.91;3122847;28;20468;-68
2021/12/16 06:14:26;;;;;;;21.13;10.00;;;;;;;2.85;67.31;100631.78;3119939;28;20045;-67
2021/12/16 06:22:23;;;;;;;22.35;9.75;;;;;;;2.87;67.31;100632.63;3117809;28;20049;-69
2021/12/16 06:27:06;;;;;;;23.50;10.55;;;;;;;2.64;67.20;100594.91;3116369;28;20053;-71
2021/12/16 06:28:38;;;;;;;22.23;10.13;;;;;;;2.91;67.16;100639.50;3118950;28;20145;-68
2021/12/16 06:30:13;;;;;;;21.70;10.23;;;;;;;2.98;67.08;100636.03;3119719;28;20049;-69
2021/12/16 06:31:45;;;;;;;24.35;11.13;;;;;;;3.01;66.94;100635.19;3117558;28;20140;-69
2021/12/16 06:33:22;;;;;;;22.52;10.90;;;;;;;2.99;66.95;100632.63;3114221;28;20073;-69
2021/12/16 06:34:55;;;;;;;29.20;12.75;;;;;;;3.04;66.92;100632.59;3116487;28;20045;-70
2021/12/16 06:36:27;;;;;;;29.73;12.90;;;;;;;3.11;66.79;100637.75;3119113;28;20107;-69
2021/12/16 06:37:59;;;;;;;30.25;13.05;;;;;;;3.16;66.75;100640.31;3119266;28;20087;-68
2021/12/16 06:39:32;;;;;;;22.98;9.73;;;;;;;3.23;66.59;100636.88;3116481;28;20526;-75
2021/12/16 06:41:04;;;;;;;21.98;10.15;;;;;;;3.24;66.68;100638.59;3123015;28;20386;-73
2021/12/16 06:42:40;;;;;;;22.40;10.52;;;;;;;3.32;66.58;100639.44;3117603;28;20061;-74
2021/12/16 06:44:19;;;;;;;22.30;9.98;;;;;;;3.36;66.40;100641.13;3119615;28;20622;-74
2021/12/16 06:45:55;;;;;;;19.92;9.57;;;;;;;3.43;66.47;100644.53;3118895;28;20429;-71
2021/12/16 06:47:34;;;;;;;23.83;9.63;;;;;;;3.22;66.35;100586.25;3118114;28;20529;-73
2021/12/16 06:49:07;;;;;;;30.80;13.15;;;;;;;3.55;66.29;100634.22;3120043;28;20510;-74
2021/12/16 06:50:47;;;;;;;22.48;10.73;;;;;;;3.68;66.15;100634.19;3118424;28;20525;-72
2021/12/16 06:52:23;;;;;;;32.70;15.23;;;;;;;3.79;66.03;100633.28;3118805;28;20050;-72
2021/12/16 06:54:04;;;;;;;22.98;9.80;;;;;;;3.88;65.84;100633.25;3118779;28;20044;-68
2021/12/16 06:55:41;;;;;;;21.95;9.65;;;;;;;3.92;65.76;100618.63;3118604;28;20068;-70
2021/12/16 06:57:20;;;;;;;19.98;10.05;;;;;;;4.16;65.68;100635.66;3119295;28;20060;-72
2021/12/16 06:59:05;;;;;;;20.98;9.52;;;;;;;4.29;65.20;100629.59;3117580;28;20399;-70
2021/12/16 07:00:41;;;;;;;23.55;10.27;;;;;;;4.45;64.95;100632.91;3115606;28;20119;-67
2021/12/16 07:02:18;;;;;;;21.08;9.35;;;;;;;4.56;64.58;100630.28;3116768;28;20172;-66
2021/12/16 07:03:50;;;;;;;20.10;9.07;;;;;;;4.75;64.36;100629.25;3119055;28;20111;-66
2021/12/16 07:05:26;;;;;;;23.80;10.43;;;;;;;4.87;64.19;100628.28;3118655;28;20473;-66
2021/12/16 07:06:58;;;;;;;25.75;9.75;;;;;;;5.00;63.63;100635.06;3116371;28;20103;-67
2021/12/16 07:08:30;;;;;;;27.30;10.57;;;;;;;5.13;63.32;100635.81;3118275;28;20049;-66
2021/12/16 07:10:02;;;;;;;24.30;9.95;;;;;;;5.25;63.01;100635.69;3117952;28;20068;-66
2021/12/16 07:11:39;;;;;;;22.95;9.88;;;;;;;5.29;62.84;100615.00;3117892;28;20057;-66
2021/12/16 07:13:17;;;;;;;19.35;9.13;;;;;;;5.52;62.46;100630.25;3117920;28;20060;-65
2021/12/16 07:14:51;;;;;;;19.77;8.98;;;;;;;5.64;61.95;100628.38;3117104;28;20485;-63
2021/12/16 07:16:24;;;;;;;21.60;9.10;;;;;;;5.73;61.47;100631.72;3117629;28;20057;-65
2021/12/16 07:17:57;;;;;;;23.58;10.05;;;;;;;5.87;61.28;100635.84;3115338;28;20045;-65
2021/12/16 07:19:29;;;;;;;21.88;9.82;;;;;;;5.99;61.08;100631.44;3116569;28;20054;-65
2021/12/16 07:21:01;;;;;;;20.63;9.35;;;;;;;6.12;60.55;100638.13;3114048;28;20144;-66
2021/12/16 07:22:35;;;;;;;16.60;8.77;;;;;;;6.21;60.36;100637.16;3115482;28;20045;-66
2021/12/16 07:24:12;;;;;;;21.10;9.15;;;;;;;6.30;59.86;100637.91;3115054;28;20057;-66
2021/12/16 07:25:44;;;;;;;19.15;8.70;;;;;;;6.41;59.75;100637.75;3115819;28;20672;-66
2021/12/16 07:27:16;;;;;;;22.02;9.75;;;;;;;6.52;59.16;100643.63;3117127;28;20057;-66
2021/12/16 07:28:48;;;;;;;23.05;9.65;;;;;;;6.59;58.90;100645.22;3116531;28;20045;-66
2021/12/16 07:30:23;;;;;;;23.05;10.85;;;;;;;6.67;58.49;100639.09;3116026;28;20053;-66
2021/12/16 07:31:55;;;;;;;20.38;10.05;;;;;;;6.69;58.38;100632.16;3116745;28;20057;-66
2021/12/16 07:33:27;;;;;;;22.30;9.87;;;;;;;6.74;58.50;100638.09;3116483;28;20054;-66
2021/12/16 07:34:59;;;;;;;24.02;10.02;;;;;;;6.80;58.16;100638.88;3117679;28;20042;-66
2021/12/16 07:36:33;;;;;;;22.25;10.25;;;;;;;6.91;57.87;100637.84;3118076;28;20053;-66
2021/12/16 07:38:06;;;;;;;24.27;10.75;;;;;;;6.96;57.67;100628.25;3117347;28;20054;-66
2021/12/16 07:39:41;;;;;;;26.92;11.07;;;;;;;7.06;57.47;100641.00;3118395;28;20049;-66
2021/12/16 07:41:16;;;;;;;22.73;10.00;;;;;;;7.15;57.48;100637.41;3117069;28;20049;-66
2021/12/16 07:42:59;;;;;;;21.13;9.45;;;;;;;7.16;57.29;100617.53;3118584;28;20053;-66
2021/12/16 07:44:32;;;;;;;21.58;9.32;;;;;;;7.25;56.83;100626.00;3117235;28;20057;-66
2021/12/16 07:46:06;;;;;;;20.63;9.50;;;;;;;7.32;56.93;100615.53;3116748;28;20136;-66
2021/12/16 07:47:37;;;;;;;;;;;;;;;7.19;57.16;100620.94;3118836;28;20111;-66
2021/12/16 07:49:15;;;;;;;20.10;8.73;;;;;;;7.22;56.79;100607.94;3117947;28;19932;-66
2021/12/16 07:50:49;;;;;;;22.05;9.55;;;;;;;7.44;56.51;100628.25;3117538;28;20136;-66
2021/12/16 07:52:23;;;;;;;18.48;9.48;;;;;;;7.49;55.93;100622.09;3117107;28;20053;-66
2021/12/16 07:53:54;;;;;;;18.50;8.80;;;;;;;7.57;55.69;100627.13;3117522;28;20053;-66
2021/12/16 07:55:27;;;;;;;21.08;9.45;;;;;;;7.35;55.52;100571.41;3118957;28;20511;-66
2021/12/16 07:57:00;;;;;;;18.98;8.63;;;;;;;7.70;55.23;100618.22;3115731;28;20456;-67
2021/12/16 07:58:32;;;;;;;14.25;7.93;;;;;;;7.74;54.97;100612.09;3117647;28;20084;-67
2021/12/16 08:00:13;;;;;;;15.77;8.80;;;;;;;7.33;54.56;100537.75;3117646;28;20065;-67
2021/12/16 08:01:46;;;;;;;14.95;7.95;;;;;;;7.86;54.50;100616.16;3115525;28;20054;-67
2021/12/16 08:03:19;;;;;;;18.08;9.57;;;;;;;7.93;54.24;100622.09;3118218;28;20151;-67
2021/12/16 08:04:52;;;;;;;16.83;8.15;;;;;;;7.95;54.14;100612.53;3115943;28;20092;-67
2021/12/16 08:06:27;;;;;;;16.23;8.07;;;;;;;8.02;54.15;100619.31;3118694;28;20058;-67
2021/12/16 08:07:59;;;;;;;15.88;8.65;;;;;;;8.06;53.90;100630.47;3116976;28;20061;-67
2021/12/16 08:09:31;;;;;;;18.45;7.90;;;;;;;8.11;53.82;100626.03;3117611;28;20049;-67
2021/12/16 08:11:05;;;;;;;14.73;7.85;;;;;;;8.16;53.27;100614.66;3118777;28;20049;-67
2021/12/16 08:12:37;;;;;;;14.30;7.15;;;;;;;8.12;53.09;100607.81;3116794;28;20729;-67
2021/12/16 08:14:10;;;;;;;13.73;8.07;;;;;;;7.68;53.34;100538.78;3117688;28;20107;-67
2021/12/16 08:15:42;;;;;;;16.20;7.97;;;;;;;8.21;53.38;100617.16;3117009;28;20514;-67
2021/12/16 08:17:16;;;;;;;20.77;8.45;;;;;;;8.27;53.03;100603.19;3113833;28;20446;-66
2021/12/16 08:18:48;;;;;;;17.50;8.20;;;;;;;8.29;52.92;100620.44;3120460;28;20537;-67
2021/12/16 08:20:20;;;;;;;15.43;7.40;;;;;;;8.26;52.60;100606.69;3119299;28;20119;-67
2021/12/16 08:21:52;;;;;;;18.25;8.40;;;;;;;7.85;52.50;100539.25;3119890;28;20056;-67
2021/12/16 08:23:24;;;;;;;13.85;6.90;;;;;;;8.31;52.22;100602.22;3121047;28;20073;-66
2021/12/16 08:24:56;;;;;;;17.80;8.25;;;;;;;8.40;52.14;100608.09;3119391;28;20103;-66
2021/12/16 08:26:29;;;;;;;14.38;7.63;;;;;;;8.43;52.35;100608.03;3120607;28;20548;-66
2021/12/16 08:28:04;;;;;;;13.75;7.03;;;;;;;8.45;52.15;100605.38;3117691;28;20053;-66
2021/12/16 08:29:36;;;;;;;13.15;7.53;;;;;;;8.51;52.06;100613.00;3120696;28;20133;-66
2021/12/16 08:31:07;;;;;;;18.23;7.90;;;;;;;8.55;51.87;100606.88;3119415;28;20139;-66
2021/12/16 08:32:41;;;;;;;13.98;7.78;;;;;;;8.65;52.12;100610.94;3119155;28;20111;-67
2021/12/16 08:34:13;;;;;;;14.65;7.95;;;;;;;8.66;51.88;100607.44;3120099;28;20410;-67
2021/12/16 08:35:47;;;;;;;13.30;7.25;;;;;;;8.69;51.49;100608.28;3118891;28;20057;-66
2021/12/16 08:37:24;;;;;;;14.35;7.97;;;;;;;8.64;51.56;100617.03;3119434;28;20207;-67
2021/12/16 08:38:56;;;;;;;12.07;7.15;;;;;;;8.58;51.41;100599.03;3119609;28;20061;-67
2021/12/16 08:40:30;;;;;;;17.17;7.63;;;;;;;8.69;51.45;100614.31;3120111;28;20103;-67
2021/12/16 08:42:04;;;;;;;12.77;7.05;;;;;;;8.70;51.27;100604.81;3120649;28;20077;-67
2021/12/16 08:43:37;;;;;;;20.73;7.93;;;;;;;8.71;51.12;100601.31;3119063;28;20053;-67
2021/12/16 08:45:12;;;;;;;14.15;8.02;;;;;;;8.27;51.07;100521.00;3119659;28;20041;-67
2021/12/16 08:46:49;;;;;;;14.23;7.63;;;;;;;8.80;50.97;100599.31;3120850;28;20054;-66
2021/12/16 08:48:23;;;;;;;15.27;8.00;;;;;;;8.83;51.03;100588.88;3118661;28;20128;-66
2021/12/16 08:49:55;;;;;;;14.10;8.20;;;;;;;8.92;51.00;100592.97;3120209;28;20049;-66
2021/12/16 08:51:31;;;;;;;15.85;8.25;;;;;;;9.00;50.77;100595.38;3120384;28;20056;-66
2021/12/16 08:53:05;;;;;;;17.20;8.02;;;;;;;8.97;50.62;100592.88;3118976;28;20049;-66
2021/12/16 08:54:37;;;;;;;16.95;8.63;;;;;;;9.00;50.65;100590.19;3118960;28;20192;-66
2021/12/16 08:56:09;;;;;;;16.77;8.52;;;;;;;8.95;50.55;100589.44;3119248;28;20054;-66
2021/12/16 08:57:41;;;;;;;15.40;8.60;;;;;;;8.87;50.46;100582.72;3121080;28;20076;-66
2021/12/16 08:59:14;;;;;;;17.33;8.48;;;;;;;8.88;50.59;100583.56;3118385;28;20057;-66
2021/12/16 09:00:52;;;;;;;18.30;9.38;;;;;;;8.65;50.63;100543.44;3118973;28;20049;-66
2021/12/16 09:02:24;;;;;;;16.65;8.23;;;;;;;8.97;50.75;100588.53;3119737;28;20068;-63
2021/12/16 09:03:58;;;;;;;15.63;8.07;;;;;;;8.62;50.48;100521.91;3119315;28;20103;-63
2021/12/16 09:05:32;;;;;;;16.58;8.95;;;;;;;9.01;50.66;100589.28;3119588;28;20061;-64